sensor_id;sensor_type;location;lat;lon;timestamp;P1;durP1;ratioP1;P2;durP2;ratioP2
14377;SDS011;7272;53.668;9.578;2023-02-02T00:02:47;14.87;;;5.10;;
14377;SDS011;7272;53.668;9.578;2023-02-02T00:05:50;20.03;;;6.30;;
14377;SDS011;7272;53.668;9.578;2023-02-02T00:08:54;21.13;;;6.37;;
14377;SDS011;7272;53.668;9.578;2023-02-02T00:11:59;14.13;;;5.03;;
14377;SDS011;7272;53.668;9.578;2023-02-02T00:15:01;17.73;;;5.37;;
14377;SDS011;7272;53.668;9.578;2023-02-02T00:18:04;20.70;;;5.50;;
14377;SDS011;7272;53.668;9.578;2023-02-02T00:21:06;18.67;;;5.67;;
14377;SDS011;7272;53.668;9.578;2023-02-02T00:24:08;16.53;;;5.70;;
14377;SDS011;7272;53.668;9.578;2023-02-02T00:27:12;17.87;;;5.67;;
14377;SDS011;7272;53.668;9.578;2023-02-02T00:30:14;18.30;;;5.80;;
14377;SDS011;7272;53.668;9.578;2023-02-02T00:33:16;19.10;;;5.17;;
14377;SDS011;7272;53.668;9.578;2023-02-02T00:36:19;15.20;;;4.20;;
14377;SDS011;7272;53.668;9.578;2023-02-02T00:39:22;15.07;;;5.07;;
14377;SDS011;7272;53.668;9.578;2023-02-02T00:42:26;21.33;;;6.17;;
14377;SDS011;7272;53.668;9.578;2023-02-02T00:45:28;18.60;;;5.33;;
14377;SDS011;7272;53.668;9.578;2023-02-02T00:48:31;14.67;;;4.73;;
14377;SDS011;7272;53.668;9.578;2023-02-02T00:51:33;14.03;;;4.50;;
14377;SDS011;7272;53.668;9.578;2023-02-02T00:54:34;16.03;;;5.03;;
14377;SDS011;7272;53.668;9.578;2023-02-02T00:57:38;19.03;;;5.67;;
14377;SDS011;7272;53.668;9.578;2023-02-02T01:00:40;18.77;;;5.30;;
14377;SDS011;7272;53.668;9.578;2023-02-02T01:03:42;14.20;;;4.60;;
14377;SDS011;7272;53.668;9.578;2023-02-02T01:06:44;20.37;;;5.07;;
14377;SDS011;7272;53.668;9.578;2023-02-02T01:09:46;17.67;;;5.60;;
14377;SDS011;7272;53.668;9.578;2023-02-02T01:12:49;13.30;;;4.80;;
14377;SDS011;7272;53.668;9.578;2023-02-02T01:15:53;14.60;;;6.07;;
14377;SDS011;7272;53.668;9.578;2023-02-02T01:18:56;11.77;;;4.60;;
14377;SDS011;7272;53.668;9.578;2023-02-02T01:21:58;11.43;;;4.37;;
14377;SDS011;7272;53.668;9.578;2023-02-02T01:25:00;17.10;;;4.33;;
14377;SDS011;7272;53.668;9.578;2023-02-02T01:28:03;16.17;;;4.93;;
14377;SDS011;7272;53.668;9.578;2023-02-02T01:31:06;17.50;;;5.13;;
14377;SDS011;7272;53.668;9.578;2023-02-02T01:34:09;15.50;;;5.20;;
14377;SDS011;7272;53.668;9.578;2023-02-02T01:37:11;14.70;;;5.13;;
14377;SDS011;7272;53.668;9.578;2023-02-02T01:40:13;14.37;;;5.23;;
14377;SDS011;7272;53.668;9.578;2023-02-02T01:43:21;14.13;;;4.70;;
14377;SDS011;7272;53.668;9.578;2023-02-02T01:46:25;19.57;;;4.70;;
14377;SDS011;7272;53.668;9.578;2023-02-02T01:49:28;18.23;;;4.93;;
14377;SDS011;7272;53.668;9.578;2023-02-02T01:52:30;13.07;;;4.07;;
14377;SDS011;7272;53.668;9.578;2023-02-02T01:55:35;9.70;;;4.40;;
14377;SDS011;7272;53.668;9.578;2023-02-02T01:58:41;14.57;;;4.63;;
14377;SDS011;7272;53.668;9.578;2023-02-02T02:01:44;17.17;;;5.07;;
14377;SDS011;7272;53.668;9.578;2023-02-02T02:04:47;12.03;;;4.43;;
14377;SDS011;7272;53.668;9.578;2023-02-02T02:07:52;16.30;;;5.00;;
14377;SDS011;7272;53.668;9.578;2023-02-02T02:10:57;21.30;;;5.90;;
14377;SDS011;7272;53.668;9.578;2023-02-02T02:14:02;18.83;;;5.63;;
14377;SDS011;7272;53.668;9.578;2023-02-02T02:17:29;12.83;;;5.27;;
14377;SDS011;7272;53.668;9.578;2023-02-02T02:20:55;15.40;;;5.27;;
14377;SDS011;7272;53.668;9.578;2023-02-02T02:24:46;16.97;;;5.07;;
14377;SDS011;7272;53.668;9.578;2023-02-02T02:28:27;13.53;;;5.43;;
14377;SDS011;7272;53.668;9.578;2023-02-02T02:35:16;17.23;;;4.90;;
14377;SDS011;7272;53.668;9.578;2023-02-02T02:38:29;17.17;;;4.60;;
14377;SDS011;7272;53.668;9.578;2023-02-02T02:41:36;11.13;;;4.10;;
14377;SDS011;7272;53.668;9.578;2023-02-02T02:44:44;10.90;;;4.73;;
14377;SDS011;7272;53.668;9.578;2023-02-02T02:47:50;13.60;;;4.13;;
14377;SDS011;7272;53.668;9.578;2023-02-02T02:51:02;11.33;;;4.70;;
14377;SDS011;7272;53.668;9.578;2023-02-02T02:54:06;8.60;;;3.67;;
14377;SDS011;7272;53.668;9.578;2023-02-02T02:57:17;11.43;;;4.23;;
14377;SDS011;7272;53.668;9.578;2023-02-02T03:00:34;13.03;;;4.23;;
14377;SDS011;7272;53.668;9.578;2023-02-02T03:03:56;11.63;;;4.37;;
14377;SDS011;7272;53.668;9.578;2023-02-02T03:07:06;14.83;;;4.87;;
14377;SDS011;7272;53.668;9.578;2023-02-02T03:10:13;10.60;;;3.97;;
14377;SDS011;7272;53.668;9.578;2023-02-02T03:13:19;12.00;;;3.60;;
14377;SDS011;7272;53.668;9.578;2023-02-02T03:16:21;11.07;;;3.47;;
14377;SDS011;7272;53.668;9.578;2023-02-02T03:19:24;7.83;;;3.10;;
14377;SDS011;7272;53.668;9.578;2023-02-02T03:22:26;9.43;;;3.70;;
14377;SDS011;7272;53.668;9.578;2023-02-02T03:25:28;9.53;;;3.87;;
14377;SDS011;7272;53.668;9.578;2023-02-02T03:28:30;8.87;;;3.50;;
14377;SDS011;7272;53.668;9.578;2023-02-02T03:31:33;10.50;;;3.57;;
14377;SDS011;7272;53.668;9.578;2023-02-02T03:34:36;9.57;;;3.77;;
14377;SDS011;7272;53.668;9.578;2023-02-02T03:37:38;8.20;;;3.33;;
14377;SDS011;7272;53.668;9.578;2023-02-02T03:40:40;12.33;;;3.87;;
14377;SDS011;7272;53.668;9.578;2023-02-02T03:43:42;13.40;;;4.00;;
14377;SDS011;7272;53.668;9.578;2023-02-02T03:46:44;11.77;;;3.70;;
14377;SDS011;7272;53.668;9.578;2023-02-02T03:49:47;16.23;;;4.23;;
14377;SDS011;7272;53.668;9.578;2023-02-02T03:52:49;13.97;;;6.60;;
14377;SDS011;7272;53.668;9.578;2023-02-02T03:55:51;12.80;;;4.67;;
14377;SDS011;7272;53.668;9.578;2023-02-02T03:58:54;19.73;;;4.67;;
14377;SDS011;7272;53.668;9.578;2023-02-02T04:01:56;17.40;;;4.77;;
14377;SDS011;7272;53.668;9.578;2023-02-02T04:04:59;17.53;;;4.77;;
14377;SDS011;7272;53.668;9.578;2023-02-02T04:08:01;9.37;;;3.50;;
14377;SDS011;7272;53.668;9.578;2023-02-02T04:11:03;12.50;;;4.20;;
14377;SDS011;7272;53.668;9.578;2023-02-02T04:14:05;7.73;;;3.60;;
14377;SDS011;7272;53.668;9.578;2023-02-02T04:17:06;11.67;;;3.37;;
14377;SDS011;7272;53.668;9.578;2023-02-02T04:20:10;8.03;;;3.10;;
14377;SDS011;7272;53.668;9.578;2023-02-02T04:23:12;11.10;;;3.50;;
14377;SDS011;7272;53.668;9.578;2023-02-02T04:26:14;8.23;;;3.13;;
14377;SDS011;7272;53.668;9.578;2023-02-02T04:29:16;9.43;;;3.27;;
14377;SDS011;7272;53.668;9.578;2023-02-02T04:32:18;9.73;;;3.33;;
14377;SDS011;7272;53.668;9.578;2023-02-02T04:35:21;14.50;;;3.97;;
14377;SDS011;7272;53.668;9.578;2023-02-02T04:38:23;16.57;;;6.07;;
14377;SDS011;7272;53.668;9.578;2023-02-02T04:41:25;16.10;;;4.50;;
14377;SDS011;7272;53.668;9.578;2023-02-02T04:44:27;14.67;;;4.57;;
14377;SDS011;7272;53.668;9.578;2023-02-02T04:47:29;13.23;;;5.10;;
14377;SDS011;7272;53.668;9.578;2023-02-02T04:50:32;14.93;;;4.70;;
14377;SDS011;7272;53.668;9.578;2023-02-02T04:53:34;15.67;;;4.43;;
14377;SDS011;7272;53.668;9.578;2023-02-02T04:56:36;13.93;;;4.60;;
14377;SDS011;7272;53.668;9.578;2023-02-02T04:59:38;16.37;;;4.60;;
14377;SDS011;7272;53.668;9.578;2023-02-02T05:02:40;14.27;;;4.23;;
14377;SDS011;7272;53.668;9.578;2023-02-02T05:05:44;17.97;;;4.73;;
14377;SDS011;7272;53.668;9.578;2023-02-02T05:08:46;15.17;;;4.70;;
14377;SDS011;7272;53.668;9.578;2023-02-02T05:11:49;17.60;;;4.63;;
14377;SDS011;7272;53.668;9.578;2023-02-02T05:14:50;16.33;;;4.50;;
14377;SDS011;7272;53.668;9.578;2023-02-02T05:17:52;15.20;;;5.37;;
14377;SDS011;7272;53.668;9.578;2023-02-02T05:20:57;18.47;;;5.37;;
14377;SDS011;7272;53.668;9.578;2023-02-02T05:23:59;18.43;;;5.23;;
14377;SDS011;7272;53.668;9.578;2023-02-02T05:27:02;16.33;;;5.40;;
14377;SDS011;7272;53.668;9.578;2023-02-02T05:30:05;17.53;;;5.73;;
14377;SDS011;7272;53.668;9.578;2023-02-02T05:33:08;18.30;;;5.47;;
14377;SDS011;7272;53.668;9.578;2023-02-02T05:36:11;21.40;;;5.90;;
14377;SDS011;7272;53.668;9.578;2023-02-02T05:39:14;16.40;;;5.00;;
14377;SDS011;7272;53.668;9.578;2023-02-02T05:42:15;16.93;;;5.40;;
14377;SDS011;7272;53.668;9.578;2023-02-02T05:45:17;15.43;;;5.00;;
14377;SDS011;7272;53.668;9.578;2023-02-02T05:48:19;13.37;;;4.90;;
14377;SDS011;7272;53.668;9.578;2023-02-02T05:51:23;17.93;;;5.20;;
14377;SDS011;7272;53.668;9.578;2023-02-02T05:54:28;21.73;;;6.17;;
14377;SDS011;7272;53.668;9.578;2023-02-02T05:57:30;15.40;;;5.03;;
14377;SDS011;7272;53.668;9.578;2023-02-02T06:00:32;19.37;;;5.17;;
14377;SDS011;7272;53.668;9.578;2023-02-02T06:03:34;14.40;;;4.97;;
14377;SDS011;7272;53.668;9.578;2023-02-02T06:06:37;22.33;;;6.20;;
14377;SDS011;7272;53.668;9.578;2023-02-02T06:09:39;17.73;;;5.07;;
14377;SDS011;7272;53.668;9.578;2023-02-02T06:12:41;15.67;;;4.67;;
14377;SDS011;7272;53.668;9.578;2023-02-02T06:15:43;15.87;;;4.93;;
14377;SDS011;7272;53.668;9.578;2023-02-02T06:18:45;17.87;;;4.70;;
14377;SDS011;7272;53.668;9.578;2023-02-02T06:21:49;20.53;;;5.07;;
14377;SDS011;7272;53.668;9.578;2023-02-02T06:24:51;17.17;;;4.80;;
14377;SDS011;7272;53.668;9.578;2023-02-02T06:27:54;18.77;;;5.37;;
14377;SDS011;7272;53.668;9.578;2023-02-02T06:31:02;18.47;;;5.23;;
14377;SDS011;7272;53.668;9.578;2023-02-02T06:34:04;14.83;;;4.33;;
14377;SDS011;7272;53.668;9.578;2023-02-02T06:37:08;22.70;;;5.67;;
14377;SDS011;7272;53.668;9.578;2023-02-02T06:40:11;15.07;;;5.10;;
14377;SDS011;7272;53.668;9.578;2023-02-02T06:43:13;13.33;;;4.90;;
14377;SDS011;7272;53.668;9.578;2023-02-02T06:46:15;15.50;;;5.03;;
14377;SDS011;7272;53.668;9.578;2023-02-02T06:49:17;16.80;;;5.07;;
14377;SDS011;7272;53.668;9.578;2023-02-02T06:52:20;14.60;;;5.13;;
14377;SDS011;7272;53.668;9.578;2023-02-02T06:55:23;33.43;;;5.90;;
14377;SDS011;7272;53.668;9.578;2023-02-02T06:58:25;20.77;;;5.83;;
14377;SDS011;7272;53.668;9.578;2023-02-02T07:01:28;13.83;;;4.43;;
14377;SDS011;7272;53.668;9.578;2023-02-02T07:04:30;16.53;;;5.43;;
14377;SDS011;7272;53.668;9.578;2023-02-02T07:07:33;18.87;;;5.03;;
14377;SDS011;7272;53.668;9.578;2023-02-02T07:10:35;15.33;;;4.27;;
14377;SDS011;7272;53.668;9.578;2023-02-02T07:13:38;14.43;;;4.90;;
14377;SDS011;7272;53.668;9.578;2023-02-02T07:16:40;17.30;;;4.47;;
14377;SDS011;7272;53.668;9.578;2023-02-02T07:19:42;12.57;;;4.83;;
14377;SDS011;7272;53.668;9.578;2023-02-02T07:22:45;15.83;;;5.60;;
14377;SDS011;7272;53.668;9.578;2023-02-02T07:25:47;14.73;;;4.20;;
14377;SDS011;7272;53.668;9.578;2023-02-02T07:28:50;12.77;;;4.40;;
14377;SDS011;7272;53.668;9.578;2023-02-02T07:31:52;15.30;;;3.80;;
14377;SDS011;7272;53.668;9.578;2023-02-02T07:34:57;11.10;;;3.47;;
14377;SDS011;7272;53.668;9.578;2023-02-02T07:38:00;9.03;;;3.20;;
14377;SDS011;7272;53.668;9.578;2023-02-02T07:41:02;15.27;;;4.40;;
14377;SDS011;7272;53.668;9.578;2023-02-02T07:44:04;14.07;;;3.63;;
14377;SDS011;7272;53.668;9.578;2023-02-02T07:47:07;8.83;;;3.60;;
14377;SDS011;7272;53.668;9.578;2023-02-02T07:50:09;11.00;;;3.30;;
14377;SDS011;7272;53.668;9.578;2023-02-02T07:53:12;11.50;;;3.47;;
14377;SDS011;7272;53.668;9.578;2023-02-02T07:56:15;10.23;;;3.20;;
14377;SDS011;7272;53.668;9.578;2023-02-02T07:59:18;9.57;;;3.20;;
14377;SDS011;7272;53.668;9.578;2023-02-02T08:02:19;7.77;;;3.53;;
14377;SDS011;7272;53.668;9.578;2023-02-02T08:05:21;10.13;;;3.40;;
14377;SDS011;7272;53.668;9.578;2023-02-02T08:08:25;11.47;;;3.70;;
14377;SDS011;7272;53.668;9.578;2023-02-02T08:11:27;8.00;;;2.97;;
14377;SDS011;7272;53.668;9.578;2023-02-02T08:14:29;11.57;;;3.50;;
14377;SDS011;7272;53.668;9.578;2023-02-02T08:17:31;10.47;;;3.23;;
14377;SDS011;7272;53.668;9.578;2023-02-02T08:20:33;8.80;;;2.80;;
14377;SDS011;7272;53.668;9.578;2023-02-02T08:23:36;10.17;;;3.63;;
14377;SDS011;7272;53.668;9.578;2023-02-02T08:26:39;9.10;;;3.70;;
14377;SDS011;7272;53.668;9.578;2023-02-02T08:29:41;12.17;;;3.17;;
14377;SDS011;7272;53.668;9.578;2023-02-02T08:32:43;9.83;;;3.07;;
14377;SDS011;7272;53.668;9.578;2023-02-02T08:35:45;11.37;;;3.60;;
14377;SDS011;7272;53.668;9.578;2023-02-02T08:38:49;7.57;;;3.23;;
14377;SDS011;7272;53.668;9.578;2023-02-02T08:41:53;6.93;;;2.80;;
14377;SDS011;7272;53.668;9.578;2023-02-02T08:44:55;13.27;;;3.53;;
14377;SDS011;7272;53.668;9.578;2023-02-02T08:47:57;15.37;;;3.33;;
14377;SDS011;7272;53.668;9.578;2023-02-02T08:51:00;15.03;;;3.33;;
14377;SDS011;7272;53.668;9.578;2023-02-02T08:54:04;11.40;;;4.00;;
14377;SDS011;7272;53.668;9.578;2023-02-02T08:57:06;11.00;;;3.63;;
14377;SDS011;7272;53.668;9.578;2023-02-02T09:00:09;8.50;;;2.73;;
14377;SDS011;7272;53.668;9.578;2023-02-02T09:03:11;8.53;;;3.93;;
14377;SDS011;7272;53.668;9.578;2023-02-02T09:06:14;10.30;;;3.13;;
14377;SDS011;7272;53.668;9.578;2023-02-02T09:09:19;10.30;;;3.40;;
14377;SDS011;7272;53.668;9.578;2023-02-02T09:12:21;12.60;;;3.30;;
14377;SDS011;7272;53.668;9.578;2023-02-02T09:15:23;13.37;;;3.20;;
14377;SDS011;7272;53.668;9.578;2023-02-02T09:18:25;11.70;;;3.23;;
14377;SDS011;7272;53.668;9.578;2023-02-02T09:21:27;13.33;;;3.27;;
14377;SDS011;7272;53.668;9.578;2023-02-02T09:24:30;12.30;;;3.63;;
14377;SDS011;7272;53.668;9.578;2023-02-02T09:27:35;11.53;;;3.33;;
14377;SDS011;7272;53.668;9.578;2023-02-02T09:30:37;13.80;;;4.27;;
14377;SDS011;7272;53.668;9.578;2023-02-02T09:33:39;12.23;;;2.87;;
14377;SDS011;7272;53.668;9.578;2023-02-02T09:36:42;6.43;;;2.97;;
14377;SDS011;7272;53.668;9.578;2023-02-02T09:39:47;7.13;;;2.73;;
14377;SDS011;7272;53.668;9.578;2023-02-02T09:42:51;11.30;;;3.13;;
14377;SDS011;7272;53.668;9.578;2023-02-02T09:46:03;9.07;;;3.30;;
14377;SDS011;7272;53.668;9.578;2023-02-02T09:49:11;8.90;;;3.07;;
14377;SDS011;7272;53.668;9.578;2023-02-02T09:52:17;9.53;;;2.97;;
14377;SDS011;7272;53.668;9.578;2023-02-02T09:55:27;8.63;;;2.90;;
14377;SDS011;7272;53.668;9.578;2023-02-02T09:58:35;8.83;;;2.77;;
14377;SDS011;7272;53.668;9.578;2023-02-02T10:01:43;9.37;;;3.00;;
14377;SDS011;7272;53.668;9.578;2023-02-02T10:04:48;8.93;;;2.77;;
14377;SDS011;7272;53.668;9.578;2023-02-02T10:07:53;11.10;;;3.27;;
14377;SDS011;7272;53.668;9.578;2023-02-02T10:11:03;9.40;;;2.97;;
14377;SDS011;7272;53.668;9.578;2023-02-02T10:14:18;7.57;;;2.30;;
14377;SDS011;7272;53.668;9.578;2023-02-02T10:17:27;6.30;;;2.90;;
14377;SDS011;7272;53.668;9.578;2023-02-02T10:20:38;9.77;;;3.07;;
14377;SDS011;7272;53.668;9.578;2023-02-02T10:23:44;9.93;;;2.60;;
14377;SDS011;7272;53.668;9.578;2023-02-02T10:26:48;7.67;;;2.40;;
14377;SDS011;7272;53.668;9.578;2023-02-02T10:29:54;8.70;;;2.67;;
14377;SDS011;7272;53.668;9.578;2023-02-02T10:33:01;7.03;;;2.57;;
14377;SDS011;7272;53.668;9.578;2023-02-02T10:36:09;5.17;;;2.37;;
14377;SDS011;7272;53.668;9.578;2023-02-02T10:43:20;7.17;;;2.73;;
14377;SDS011;7272;53.668;9.578;2023-02-02T10:46:49;12.83;;;2.83;;
14377;SDS011;7272;53.668;9.578;2023-02-02T10:49:54;6.40;;;2.13;;
14377;SDS011;7272;53.668;9.578;2023-02-02T11:20:07;8.20;;;2.83;;
14377;SDS011;7272;53.668;9.578;2023-02-02T11:23:25;8.17;;;2.33;;
14377;SDS011;7272;53.668;9.578;2023-02-02T11:26:39;7.07;;;2.63;;
14377;SDS011;7272;53.668;9.578;2023-02-02T11:29:43;5.67;;;2.40;;
14377;SDS011;7272;53.668;9.578;2023-02-02T11:32:48;7.87;;;2.83;;
14377;SDS011;7272;53.668;9.578;2023-02-02T11:35:55;5.67;;;2.20;;
14377;SDS011;7272;53.668;9.578;2023-02-02T11:39:09;7.47;;;2.30;;
14377;SDS011;7272;53.668;9.578;2023-02-02T11:42:16;7.23;;;2.43;;
14377;SDS011;7272;53.668;9.578;2023-02-02T11:45:22;5.47;;;1.80;;
14377;SDS011;7272;53.668;9.578;2023-02-02T11:48:31;5.93;;;2.00;;
14377;SDS011;7272;53.668;9.578;2023-02-02T11:51:37;4.03;;;1.70;;
14377;SDS011;7272;53.668;9.578;2023-02-02T11:54:39;4.67;;;1.60;;
14377;SDS011;7272;53.668;9.578;2023-02-02T12:01:23;6.00;;;2.07;;
14377;SDS011;7272;53.668;9.578;2023-02-02T12:04:26;6.00;;;2.30;;
14377;SDS011;7272;53.668;9.578;2023-02-02T12:07:30;5.23;;;1.83;;
14377;SDS011;7272;53.668;9.578;2023-02-02T12:10:35;3.67;;;1.70;;
14377;SDS011;7272;53.668;9.578;2023-02-02T12:13:45;5.70;;;2.00;;
14377;SDS011;7272;53.668;9.578;2023-02-02T12:17:01;5.83;;;1.90;;
14377;SDS011;7272;53.668;9.578;2023-02-02T12:20:20;4.27;;;1.73;;
14377;SDS011;7272;53.668;9.578;2023-02-02T12:23:36;4.57;;;2.30;;
14377;SDS011;7272;53.668;9.578;2023-02-02T12:26:53;5.47;;;1.70;;
14377;SDS011;7272;53.668;9.578;2023-02-02T12:30:09;5.05;;;1.92;;
14377;SDS011;7272;53.668;9.578;2023-02-02T12:33:26;3.90;;;1.93;;
14377;SDS011;7272;53.668;9.578;2023-02-02T12:36:42;4.43;;;1.63;;
14377;SDS011;7272;53.668;9.578;2023-02-02T12:39:54;5.68;;;2.22;;
14377;SDS011;7272;53.668;9.578;2023-02-02T12:43:10;9.80;;;2.33;;
14377;SDS011;7272;53.668;9.578;2023-02-02T12:46:28;5.93;;;2.10;;
14377;SDS011;7272;53.668;9.578;2023-02-02T12:49:57;6.57;;;2.33;;
14377;SDS011;7272;53.668;9.578;2023-02-02T12:53:08;4.73;;;2.10;;
14377;SDS011;7272;53.668;9.578;2023-02-02T12:56:21;5.70;;;1.90;;
14377;SDS011;7272;53.668;9.578;2023-02-02T12:59:34;5.67;;;1.90;;
14377;SDS011;7272;53.668;9.578;2023-02-02T13:02:52;3.97;;;1.90;;
14377;SDS011;7272;53.668;9.578;2023-02-02T13:06:12;5.03;;;2.20;;
14377;SDS011;7272;53.668;9.578;2023-02-02T13:09:26;4.33;;;1.83;;
14377;SDS011;7272;53.668;9.578;2023-02-02T13:12:33;6.23;;;2.00;;
14377;SDS011;7272;53.668;9.578;2023-02-02T13:15:39;5.27;;;1.73;;
14377;SDS011;7272;53.668;9.578;2023-02-02T13:18:44;5.30;;;1.90;;
14377;SDS011;7272;53.668;9.578;2023-02-02T13:21:52;5.93;;;2.00;;
14377;SDS011;7272;53.668;9.578;2023-02-02T13:24:58;6.03;;;2.03;;
14377;SDS011;7272;53.668;9.578;2023-02-02T13:28:04;3.90;;;2.07;;
14377;SDS011;7272;53.668;9.578;2023-02-02T13:31:10;4.30;;;1.60;;
14377;SDS011;7272;53.668;9.578;2023-02-02T13:34:17;5.20;;;1.77;;
14377;SDS011;7272;53.668;9.578;2023-02-02T13:37:24;6.13;;;1.90;;
14377;SDS011;7272;53.668;9.578;2023-02-02T13:40:37;6.30;;;1.60;;
14377;SDS011;7272;53.668;9.578;2023-02-02T13:43:45;5.07;;;1.70;;
14377;SDS011;7272;53.668;9.578;2023-02-02T13:46:55;2.87;;;1.50;;
14377;SDS011;7272;53.668;9.578;2023-02-02T13:50:00;4.43;;;1.80;;
14377;SDS011;7272;53.668;9.578;2023-02-02T13:53:09;6.40;;;2.10;;
14377;SDS011;7272;53.668;9.578;2023-02-02T13:56:28;5.03;;;1.40;;
14377;SDS011;7272;53.668;9.578;2023-02-02T13:59:49;2.93;;;1.67;;
14377;SDS011;7272;53.668;9.578;2023-02-02T14:02:54;4.93;;;1.67;;
14377;SDS011;7272;53.668;9.578;2023-02-02T14:06:02;5.57;;;1.90;;
14377;SDS011;7272;53.668;9.578;2023-02-02T14:09:07;7.13;;;2.00;;
14377;SDS011;7272;53.668;9.578;2023-02-02T14:12:25;3.93;;;1.83;;
14377;SDS011;7272;53.668;9.578;2023-02-02T14:15:38;2.97;;;1.60;;
14377;SDS011;7272;53.668;9.578;2023-02-02T14:18:50;4.07;;;1.83;;
14377;SDS011;7272;53.668;9.578;2023-02-02T14:21:57;5.20;;;1.77;;
14377;SDS011;7272;53.668;9.578;2023-02-02T14:25:01;4.37;;;1.73;;
14377;SDS011;7272;53.668;9.578;2023-02-02T14:28:06;5.43;;;1.90;;
14377;SDS011;7272;53.668;9.578;2023-02-02T14:34:52;4.90;;;1.80;;
14377;SDS011;7272;53.668;9.578;2023-02-02T14:37:55;6.47;;;2.28;;
14377;SDS011;7272;53.668;9.578;2023-02-02T14:41:04;4.20;;;1.77;;
14377;SDS011;7272;53.668;9.578;2023-02-02T14:44:12;5.40;;;2.10;;
14377;SDS011;7272;53.668;9.578;2023-02-02T14:50:47;2.87;;;1.53;;
14377;SDS011;7272;53.668;9.578;2023-02-02T14:53:52;5.07;;;1.90;;
14377;SDS011;7272;53.668;9.578;2023-02-02T14:56:57;4.50;;;1.70;;
14377;SDS011;7272;53.668;9.578;2023-02-02T15:00:02;5.20;;;2.10;;
14377;SDS011;7272;53.668;9.578;2023-02-02T15:06:46;2.53;;;1.50;;
14377;SDS011;7272;53.668;9.578;2023-02-02T15:09:51;3.50;;;1.67;;
14377;SDS011;7272;53.668;9.578;2023-02-02T15:13:00;4.30;;;1.47;;
14377;SDS011;7272;53.668;9.578;2023-02-02T15:16:06;2.17;;;1.33;;
14377;SDS011;7272;53.668;9.578;2023-02-02T15:19:23;5.40;;;1.90;;
14377;SDS011;7272;53.668;9.578;2023-02-02T15:22:32;4.17;;;1.60;;
14377;SDS011;7272;53.668;9.578;2023-02-02T15:25:39;5.73;;;1.50;;
14377;SDS011;7272;53.668;9.578;2023-02-02T15:28:46;6.73;;;2.03;;
14377;SDS011;7272;53.668;9.578;2023-02-02T15:31:53;7.13;;;1.97;;
14377;SDS011;7272;53.668;9.578;2023-02-02T15:34:58;6.67;;;1.90;;
14377;SDS011;7272;53.668;9.578;2023-02-02T15:38:03;4.07;;;1.70;;
14377;SDS011;7272;53.668;9.578;2023-02-02T15:41:11;4.67;;;2.20;;
14377;SDS011;7272;53.668;9.578;2023-02-02T15:44:19;3.33;;;1.77;;
14377;SDS011;7272;53.668;9.578;2023-02-02T15:47:23;3.07;;;1.53;;
14377;SDS011;7272;53.668;9.578;2023-02-02T15:50:30;4.47;;;2.00;;
14377;SDS011;7272;53.668;9.578;2023-02-02T15:53:43;3.33;;;1.33;;
14377;SDS011;7272;53.668;9.578;2023-02-02T15:56:48;4.70;;;1.77;;
14377;SDS011;7272;53.668;9.578;2023-02-02T15:59:50;2.70;;;1.30;;
14377;SDS011;7272;53.668;9.578;2023-02-02T16:02:52;5.00;;;1.70;;
14377;SDS011;7272;53.668;9.578;2023-02-02T16:05:59;4.90;;;2.00;;
14377;SDS011;7272;53.668;9.578;2023-02-02T16:09:01;4.67;;;1.43;;
14377;SDS011;7272;53.668;9.578;2023-02-02T16:12:04;4.07;;;1.67;;
14377;SDS011;7272;53.668;9.578;2023-02-02T16:15:09;4.77;;;1.70;;
14377;SDS011;7272;53.668;9.578;2023-02-02T16:18:19;4.57;;;1.93;;
14377;SDS011;7272;53.668;9.578;2023-02-02T16:21:22;4.03;;;1.70;;
14377;SDS011;7272;53.668;9.578;2023-02-02T16:24:27;3.57;;;1.80;;
14377;SDS011;7272;53.668;9.578;2023-02-02T16:27:30;4.30;;;1.60;;
14377;SDS011;7272;53.668;9.578;2023-02-02T16:30:34;4.00;;;2.07;;
14377;SDS011;7272;53.668;9.578;2023-02-02T16:33:40;4.00;;;1.80;;
14377;SDS011;7272;53.668;9.578;2023-02-02T16:36:51;2.03;;;1.83;;
14377;SDS011;7272;53.668;9.578;2023-02-02T16:40:26;5.20;;;2.20;;
14377;SDS011;7272;53.668;9.578;2023-02-02T16:43:29;5.53;;;2.10;;
14377;SDS011;7272;53.668;9.578;2023-02-02T16:46:42;3.87;;;2.23;;
14377;SDS011;7272;53.668;9.578;2023-02-02T16:49:46;7.23;;;4.17;;
14377;SDS011;7272;53.668;9.578;2023-02-02T16:52:51;5.47;;;4.73;;
14377;SDS011;7272;53.668;9.578;2023-02-02T16:55:55;5.63;;;3.00;;
14377;SDS011;7272;53.668;9.578;2023-02-02T16:58:57;2.63;;;2.13;;
14377;SDS011;7272;53.668;9.578;2023-02-02T17:02:04;4.27;;;2.10;;
14377;SDS011;7272;53.668;9.578;2023-02-02T17:05:21;3.60;;;2.40;;
14377;SDS011;7272;53.668;9.578;2023-02-02T17:08:29;22.37;;;19.20;;
14377;SDS011;7272;53.668;9.578;2023-02-02T17:11:32;6.07;;;5.47;;
14377;SDS011;7272;53.668;9.578;2023-02-02T17:14:35;4.43;;;3.43;;
14377;SDS011;7272;53.668;9.578;2023-02-02T17:17:37;3.73;;;2.50;;
14377;SDS011;7272;53.668;9.578;2023-02-02T17:20:39;4.30;;;1.93;;
14377;SDS011;7272;53.668;9.578;2023-02-02T17:23:42;3.27;;;1.80;;
14377;SDS011;7272;53.668;9.578;2023-02-02T17:26:44;5.90;;;1.90;;
14377;SDS011;7272;53.668;9.578;2023-02-02T17:29:47;5.07;;;1.97;;
14377;SDS011;7272;53.668;9.578;2023-02-02T17:32:49;3.10;;;1.70;;
14377;SDS011;7272;53.668;9.578;2023-02-02T17:35:51;3.07;;;1.60;;
14377;SDS011;7272;53.668;9.578;2023-02-02T17:38:55;3.93;;;2.17;;
14377;SDS011;7272;53.668;9.578;2023-02-02T17:41:57;6.37;;;2.40;;
14377;SDS011;7272;53.668;9.578;2023-02-02T17:44:59;7.97;;;2.63;;
14377;SDS011;7272;53.668;9.578;2023-02-02T17:48:01;6.67;;;2.77;;
14377;SDS011;7272;53.668;9.578;2023-02-02T17:51:04;5.17;;;2.57;;
14377;SDS011;7272;53.668;9.578;2023-02-02T17:54:09;5.47;;;2.43;;
14377;SDS011;7272;53.668;9.578;2023-02-02T17:57:12;4.50;;;2.73;;
14377;SDS011;7272;53.668;9.578;2023-02-02T18:00:15;2.80;;;2.17;;
14377;SDS011;7272;53.668;9.578;2023-02-02T18:03:18;6.30;;;2.43;;
14377;SDS011;7272;53.668;9.578;2023-02-02T18:06:22;3.77;;;2.70;;
14377;SDS011;7272;53.668;9.578;2023-02-02T18:09:25;5.07;;;2.50;;
14377;SDS011;7272;53.668;9.578;2023-02-02T18:12:32;7.20;;;3.63;;
14377;SDS011;7272;53.668;9.578;2023-02-02T18:15:34;6.20;;;3.07;;
14377;SDS011;7272;53.668;9.578;2023-02-02T18:18:36;5.67;;;3.03;;
14377;SDS011;7272;53.668;9.578;2023-02-02T18:21:39;3.50;;;2.80;;
14377;SDS011;7272;53.668;9.578;2023-02-02T18:24:42;6.53;;;3.73;;
14377;SDS011;7272;53.668;9.578;2023-02-02T18:27:44;5.47;;;2.93;;
14377;SDS011;7272;53.668;9.578;2023-02-02T18:30:48;4.10;;;2.90;;
14377;SDS011;7272;53.668;9.578;2023-02-02T18:33:50;5.53;;;3.33;;
14377;SDS011;7272;53.668;9.578;2023-02-02T18:36:52;6.83;;;3.23;;
14377;SDS011;7272;53.668;9.578;2023-02-02T18:39:56;4.60;;;3.03;;
14377;SDS011;7272;53.668;9.578;2023-02-02T18:42:58;8.37;;;3.60;;
14377;SDS011;7272;53.668;9.578;2023-02-02T18:46:00;6.87;;;3.77;;
14377;SDS011;7272;53.668;9.578;2023-02-02T18:49:05;3.43;;;2.80;;
14377;SDS011;7272;53.668;9.578;2023-02-02T18:52:07;4.60;;;2.83;;
14377;SDS011;7272;53.668;9.578;2023-02-02T18:55:10;7.07;;;3.30;;
14377;SDS011;7272;53.668;9.578;2023-02-02T18:58:12;6.67;;;2.70;;
14377;SDS011;7272;53.668;9.578;2023-02-02T19:01:15;5.13;;;2.83;;
14377;SDS011;7272;53.668;9.578;2023-02-02T19:04:18;5.67;;;2.80;;
14377;SDS011;7272;53.668;9.578;2023-02-02T19:07:20;3.07;;;2.30;;
14377;SDS011;7272;53.668;9.578;2023-02-02T19:10:41;4.57;;;2.80;;
14377;SDS011;7272;53.668;9.578;2023-02-02T19:13:43;6.27;;;3.17;;
14377;SDS011;7272;53.668;9.578;2023-02-02T19:16:45;8.87;;;3.40;;
14377;SDS011;7272;53.668;9.578;2023-02-02T19:19:48;6.60;;;3.37;;
14377;SDS011;7272;53.668;9.578;2023-02-02T19:22:51;6.80;;;3.10;;
14377;SDS011;7272;53.668;9.578;2023-02-02T19:26:00;9.73;;;3.10;;
14377;SDS011;7272;53.668;9.578;2023-02-02T19:29:10;8.13;;;3.33;;
14377;SDS011;7272;53.668;9.578;2023-02-02T19:32:16;8.17;;;3.20;;
14377;SDS011;7272;53.668;9.578;2023-02-02T19:35:21;7.17;;;3.03;;
14377;SDS011;7272;53.668;9.578;2023-02-02T19:38:25;10.93;;;4.03;;